Torch, Ohio
Current Conditions -  °F | °C
As of 12:53 PM on Sunday 23 Nov 2014 (Local Time) from KPKB Reporting Station
Clear Clear  
Wind Chill: 65°   Ceiling: Unl
Heat Index: 65°   Visibility: 10mi
Dew Point: 37°   Wind: 9mph
Humidity: 36%   Direction: 150°SSE
Pressure: 29.95"   Gusts: NA
Location:  39.24°N, 81.75°W
Report Text: KPKB 231753Z 15008KT 10SM CLR 18/03 A2995 RMK AO2 SLP139 T01830028 10183 20067 58044
Loading
Personal Weather Stations






























Interactive Weather Map New forecast layout! Learn more

10-Day Weather Forecast

Advertisements
Track Severe Weather on mobile